sensor_id;sensor_type;location;lat;lon;timestamp;temperature;humidity
17703;DHT22;8970;48.104;-1.680;2022-09-11T00:00:12;18.70;99.90
17703;DHT22;8970;48.104;-1.680;2022-09-11T00:00:50;18.70;99.90
17703;DHT22;8970;48.104;-1.680;2022-09-11T00:01:27;18.70;99.90
17703;DHT22;8970;48.104;-1.680;2022-09-11T00:02:05;18.70;99.90
17703;DHT22;8970;48.104;-1.680;2022-09-11T00:02:41;18.70;99.90
17703;DHT22;8970;48.104;-1.680;2022-09-11T00:03:18;18.70;99.90
17703;DHT22;8970;48.104;-1.680;2022-09-11T00:03:55;18.70;99.90
17703;DHT22;8970;48.104;-1.680;2022-09-11T00:04:32;18.60;99.90
17703;DHT22;8970;48.104;-1.680;2022-09-11T00:05:09;18.60;99.90
17703;DHT22;8970;48.104;-1.680;2022-09-11T00:05:45;18.60;99.90
17703;DHT22;8970;48.104;-1.680;2022-09-11T00:06:23;18.60;99.90
17703;DHT22;8970;48.104;-1.680;2022-09-11T00:07:00;18.60;99.90
17703;DHT22;8970;48.104;-1.680;2022-09-11T00:07:37;18.70;99.90
17703;DHT22;8970;48.104;-1.680;2022-09-11T00:08:16;18.60;99.90
17703;DHT22;8970;48.104;-1.680;2022-09-11T00:08:54;18.70;99.90
17703;DHT22;8970;48.104;-1.680;2022-09-11T00:09:32;18.60;99.90
17703;DHT22;8970;48.104;-1.680;2022-09-11T00:10:10;18.60;99.90
17703;DHT22;8970;48.104;-1.680;2022-09-11T00:11:32;18.60;99.90
17703;DHT22;8970;48.104;-1.680;2022-09-11T00:12:09;18.60;99.90
17703;DHT22;8970;48.104;-1.680;2022-09-11T00:12:47;18.60;99.90
17703;DHT22;8970;48.104;-1.680;2022-09-11T00:14:08;18.60;99.90
17703;DHT22;8970;48.104;-1.680;2022-09-11T00:14:45;18.50;99.90
17703;DHT22;8970;48.104;-1.680;2022-09-11T00:15:22;18.50;99.90
17703;DHT22;8970;48.104;-1.680;2022-09-11T00:15:58;18.50;99.90
17703;DHT22;8970;48.104;-1.680;2022-09-11T00:16:39;18.50;99.90
17703;DHT22;8970;48.104;-1.680;2022-09-11T00:17:16;18.50;99.90
17703;DHT22;8970;48.104;-1.680;2022-09-11T00:17:54;18.50;99.90
17703;DHT22;8970;48.104;-1.680;2022-09-11T00:18:31;18.50;99.90
17703;DHT22;8970;48.104;-1.680;2022-09-11T00:19:12;18.50;99.90
17703;DHT22;8970;48.104;-1.680;2022-09-11T00:19:48;18.50;99.90
17703;DHT22;8970;48.104;-1.680;2022-09-11T00:21:08;18.50;99.90
17703;DHT22;8970;48.104;-1.680;2022-09-11T00:21:45;18.50;99.90
17703;DHT22;8970;48.104;-1.680;2022-09-11T00:22:21;18.50;99.90
17703;DHT22;8970;48.104;-1.680;2022-09-11T00:22:58;18.50;99.90
17703;DHT22;8970;48.104;-1.680;2022-09-11T00:23:37;18.50;99.90
17703;DHT22;8970;48.104;-1.680;2022-09-11T00:24:14;18.50;99.90
17703;DHT22;8970;48.104;-1.680;2022-09-11T00:24:51;18.50;99.90
17703;DHT22;8970;48.104;-1.680;2022-09-11T00:26:11;18.50;99.90
17703;DHT22;8970;48.104;-1.680;2022-09-11T00:26:48;18.50;99.90
17703;DHT22;8970;48.104;-1.680;2022-09-11T00:27:25;18.50;99.90
17703;DHT22;8970;48.104;-1.680;2022-09-11T00:28:43;18.50;99.90
17703;DHT22;8970;48.104;-1.680;2022-09-11T00:29:20;18.50;99.90
17703;DHT22;8970;48.104;-1.680;2022-09-11T00:29:56;18.50;99.90
17703;DHT22;8970;48.104;-1.680;2022-09-11T00:30:33;18.50;99.90
17703;DHT22;8970;48.104;-1.680;2022-09-11T00:31:13;18.50;99.90
17703;DHT22;8970;48.104;-1.680;2022-09-11T00:31:50;18.50;99.90
17703;DHT22;8970;48.104;-1.680;2022-09-11T00:32:27;18.50;99.90
17703;DHT22;8970;48.104;-1.680;2022-09-11T00:33:45;18.50;99.90
17703;DHT22;8970;48.104;-1.680;2022-09-11T00:34:21;18.50;99.90
17703;DHT22;8970;48.104;-1.680;2022-09-11T00:34:58;18.50;99.90
17703;DHT22;8970;48.104;-1.680;2022-09-11T00:35:35;18.50;99.90
17703;DHT22;8970;48.104;-1.680;2022-09-11T00:36:14;18.50;99.90
17703;DHT22;8970;48.104;-1.680;2022-09-11T00:36:51;18.50;99.90
17703;DHT22;8970;48.104;-1.680;2022-09-11T00:37:27;18.50;99.90
17703;DHT22;8970;48.104;-1.680;2022-09-11T00:38:04;18.50;99.90
17703;DHT22;8970;48.104;-1.680;2022-09-11T00:38:43;18.50;99.90
17703;DHT22;8970;48.104;-1.680;2022-09-11T00:40:07;18.50;99.90
17703;DHT22;8970;48.104;-1.680;2022-09-11T00:40:45;18.50;99.90
17703;DHT22;8970;48.104;-1.680;2022-09-11T00:41:25;18.50;99.90
17703;DHT22;8970;48.104;-1.680;2022-09-11T00:42:03;18.50;99.90
17703;DHT22;8970;48.104;-1.680;2022-09-11T00:43:26;18.40;99.90
17703;DHT22;8970;48.104;-1.680;2022-09-11T00:44:05;18.50;99.90
17703;DHT22;8970;48.104;-1.680;2022-09-11T00:45:39;18.40;99.90
17703;DHT22;8970;48.104;-1.680;2022-09-11T00:46:16;18.40;99.90
17703;DHT22;8970;48.104;-1.680;2022-09-11T00:47:35;18.50;99.90
17703;DHT22;8970;48.104;-1.680;2022-09-11T00:48:14;18.40;99.90
17703;DHT22;8970;48.104;-1.680;2022-09-11T00:48:52;18.50;99.90
17703;DHT22;8970;48.104;-1.680;2022-09-11T00:49:33;18.40;99.90
17703;DHT22;8970;48.104;-1.680;2022-09-11T00:50:13;18.40;99.90
17703;DHT22;8970;48.104;-1.680;2022-09-11T00:50:50;18.50;99.90
17703;DHT22;8970;48.104;-1.680;2022-09-11T00:51:31;18.50;99.90
17703;DHT22;8970;48.104;-1.680;2022-09-11T00:52:11;18.40;99.90
17703;DHT22;8970;48.104;-1.680;2022-09-11T00:53:39;18.50;99.90
17703;DHT22;8970;48.104;-1.680;2022-09-11T00:54:17;18.40;99.90
17703;DHT22;8970;48.104;-1.680;2022-09-11T00:54:58;18.40;99.90
17703;DHT22;8970;48.104;-1.680;2022-09-11T00:55:36;18.40;99.90
17703;DHT22;8970;48.104;-1.680;2022-09-11T00:56:13;18.40;99.90
17703;DHT22;8970;48.104;-1.680;2022-09-11T00:56:50;18.40;99.90
17703;DHT22;8970;48.104;-1.680;2022-09-11T00:57:29;18.40;99.90
17703;DHT22;8970;48.104;-1.680;2022-09-11T00:58:09;18.40;99.90
17703;DHT22;8970;48.104;-1.680;2022-09-11T00:58:47;18.40;99.90
17703;DHT22;8970;48.104;-1.680;2022-09-11T01:00:13;18.40;99.90
17703;DHT22;8970;48.104;-1.680;2022-09-11T01:00:54;18.40;99.90
17703;DHT22;8970;48.104;-1.680;2022-09-11T01:01:31;18.40;99.90
17703;DHT22;8970;48.104;-1.680;2022-09-11T01:02:10;18.40;99.90
17703;DHT22;8970;48.104;-1.680;2022-09-11T01:02:49;18.40;99.90
17703;DHT22;8970;48.104;-1.680;2022-09-11T01:03:27;18.40;99.90
17703;DHT22;8970;48.104;-1.680;2022-09-11T01:04:05;18.40;99.90
17703;DHT22;8970;48.104;-1.680;2022-09-11T01:04:44;18.40;99.90
17703;DHT22;8970;48.104;-1.680;2022-09-11T01:05:21;18.40;99.90
17703;DHT22;8970;48.104;-1.680;2022-09-11T01:05:59;18.40;99.90
17703;DHT22;8970;48.104;-1.680;2022-09-11T01:06:36;18.40;99.90
17703;DHT22;8970;48.104;-1.680;2022-09-11T01:07:14;18.40;99.90
17703;DHT22;8970;48.104;-1.680;2022-09-11T01:07:53;18.40;99.90
17703;DHT22;8970;48.104;-1.680;2022-09-11T01:09:12;18.40;99.90
17703;DHT22;8970;48.104;-1.680;2022-09-11T01:09:49;18.40;99.90
17703;DHT22;8970;48.104;-1.680;2022-09-11T01:10:30;18.40;99.90
17703;DHT22;8970;48.104;-1.680;2022-09-11T01:11:55;18.30;99.90
17703;DHT22;8970;48.104;-1.680;2022-09-11T01:13:21;18.30;99.90
17703;DHT22;8970;48.104;-1.680;2022-09-11T01:14:02;18.30;99.90
17703;DHT22;8970;48.104;-1.680;2022-09-11T01:14:44;18.30;99.90
17703;DHT22;8970;48.104;-1.680;2022-09-11T01:15:26;18.30;99.90
17703;DHT22;8970;48.104;-1.680;2022-09-11T01:16:52;18.30;99.90
17703;DHT22;8970;48.104;-1.680;2022-09-11T01:17:32;18.20;99.90
17703;DHT22;8970;48.104;-1.680;2022-09-11T01:18:13;18.30;99.90
17703;DHT22;8970;48.104;-1.680;2022-09-11T01:19:42;18.20;99.90
17703;DHT22;8970;48.104;-1.680;2022-09-11T01:21:50;18.20;99.90
17703;DHT22;8970;48.104;-1.680;2022-09-11T01:23:33;18.20;99.90
17703;DHT22;8970;48.104;-1.680;2022-09-11T01:24:30;18.20;99.90
17703;DHT22;8970;48.104;-1.680;2022-09-11T01:25:12;18.10;99.90
17703;DHT22;8970;48.104;-1.680;2022-09-11T01:26:11;18.10;99.90
17703;DHT22;8970;48.104;-1.680;2022-09-11T01:27:02;18.10;99.90
17703;DHT22;8970;48.104;-1.680;2022-09-11T01:27:57;18.10;99.90
17703;DHT22;8970;48.104;-1.680;2022-09-11T01:28:37;18.00;99.90
17703;DHT22;8970;48.104;-1.680;2022-09-11T01:30:00;18.10;99.90
17703;DHT22;8970;48.104;-1.680;2022-09-11T01:30:39;18.00;99.90
17703;DHT22;8970;48.104;-1.680;2022-09-11T01:32:07;18.00;99.90
17703;DHT22;8970;48.104;-1.680;2022-09-11T01:32:58;18.00;99.90
17703;DHT22;8970;48.104;-1.680;2022-09-11T01:34:25;18.00;99.90
17703;DHT22;8970;48.104;-1.680;2022-09-11T01:35:06;18.00;99.90
17703;DHT22;8970;48.104;-1.680;2022-09-11T01:35:50;18.00;99.90
17703;DHT22;8970;48.104;-1.680;2022-09-11T01:36:30;18.00;99.90
17703;DHT22;8970;48.104;-1.680;2022-09-11T01:37:56;18.00;99.90
17703;DHT22;8970;48.104;-1.680;2022-09-11T01:38:36;18.00;99.90
17703;DHT22;8970;48.104;-1.680;2022-09-11T01:39:15;18.00;99.90
17703;DHT22;8970;48.104;-1.680;2022-09-11T01:40:42;18.00;99.90
17703;DHT22;8970;48.104;-1.680;2022-09-11T01:41:22;18.00;99.90
17703;DHT22;8970;48.104;-1.680;2022-09-11T01:42:04;18.00;99.90
17703;DHT22;8970;48.104;-1.680;2022-09-11T01:43:27;18.00;99.90
17703;DHT22;8970;48.104;-1.680;2022-09-11T01:44:07;18.00;99.90
17703;DHT22;8970;48.104;-1.680;2022-09-11T01:44:47;18.00;99.90
17703;DHT22;8970;48.104;-1.680;2022-09-11T01:46:06;18.00;99.90
17703;DHT22;8970;48.104;-1.680;2022-09-11T01:47:24;18.00;99.90
17703;DHT22;8970;48.104;-1.680;2022-09-11T01:48:01;18.00;99.90
17703;DHT22;8970;48.104;-1.680;2022-09-11T01:48:41;18.00;99.90
17703;DHT22;8970;48.104;-1.680;2022-09-11T01:49:20;18.00;99.90
17703;DHT22;8970;48.104;-1.680;2022-09-11T01:50:02;18.00;99.90
17703;DHT22;8970;48.104;-1.680;2022-09-11T01:50:41;17.90;99.90
17703;DHT22;8970;48.104;-1.680;2022-09-11T01:52:06;17.90;99.90
17703;DHT22;8970;48.104;-1.680;2022-09-11T01:52:46;17.90;99.90
17703;DHT22;8970;48.104;-1.680;2022-09-11T01:53:26;17.80;99.90
17703;DHT22;8970;48.104;-1.680;2022-09-11T01:54:52;17.80;99.90
17703;DHT22;8970;48.104;-1.680;2022-09-11T01:55:33;17.80;99.90
17703;DHT22;8970;48.104;-1.680;2022-09-11T01:56:14;17.80;99.90
17703;DHT22;8970;48.104;-1.680;2022-09-11T01:56:52;17.80;99.90
17703;DHT22;8970;48.104;-1.680;2022-09-11T01:57:34;17.80;99.90
17703;DHT22;8970;48.104;-1.680;2022-09-11T01:58:13;17.80;99.90
17703;DHT22;8970;48.104;-1.680;2022-09-11T01:59:41;17.70;99.90
17703;DHT22;8970;48.104;-1.680;2022-09-11T02:00:19;17.70;99.90
17703;DHT22;8970;48.104;-1.680;2022-09-11T02:01:08;17.70;99.90
17703;DHT22;8970;48.104;-1.680;2022-09-11T02:01:40;17.70;99.90
17703;DHT22;8970;48.104;-1.680;2022-09-11T02:02:19;17.70;99.90
17703;DHT22;8970;48.104;-1.680;2022-09-11T02:03:46;17.70;99.90
17703;DHT22;8970;48.104;-1.680;2022-09-11T02:04:26;17.70;99.90
17703;DHT22;8970;48.104;-1.680;2022-09-11T02:05:50;17.70;99.90
17703;DHT22;8970;48.104;-1.680;2022-09-11T02:06:30;17.70;99.90
17703;DHT22;8970;48.104;-1.680;2022-09-11T02:07:11;17.70;99.90
17703;DHT22;8970;48.104;-1.680;2022-09-11T02:07:52;17.60;99.90
17703;DHT22;8970;48.104;-1.680;2022-09-11T02:09:16;17.60;99.90
17703;DHT22;8970;48.104;-1.680;2022-09-11T02:09:55;17.60;99.90
17703;DHT22;8970;48.104;-1.680;2022-09-11T02:10:35;17.60;99.90
17703;DHT22;8970;48.104;-1.680;2022-09-11T02:11:58;17.60;99.90
17703;DHT22;8970;48.104;-1.680;2022-09-11T02:12:39;17.60;99.90
17703;DHT22;8970;48.104;-1.680;2022-09-11T02:14:05;17.60;99.90
17703;DHT22;8970;48.104;-1.680;2022-09-11T02:14:46;17.60;99.90
17703;DHT22;8970;48.104;-1.680;2022-09-11T02:16:11;17.60;99.90
17703;DHT22;8970;48.104;-1.680;2022-09-11T02:16:50;17.60;99.90
17703;DHT22;8970;48.104;-1.680;2022-09-11T02:18:15;17.60;99.90
17703;DHT22;8970;48.104;-1.680;2022-09-11T02:18:57;17.60;99.90
17703;DHT22;8970;48.104;-1.680;2022-09-11T02:19:35;17.50;99.90
17703;DHT22;8970;48.104;-1.680;2022-09-11T02:20:14;17.50;99.90
17703;DHT22;8970;48.104;-1.680;2022-09-11T02:20:51;17.50;99.90
17703;DHT22;8970;48.104;-1.680;2022-09-11T02:21:28;17.50;99.90
17703;DHT22;8970;48.104;-1.680;2022-09-11T02:22:05;17.50;99.90
17703;DHT22;8970;48.104;-1.680;2022-09-11T02:22:42;17.50;99.90
17703;DHT22;8970;48.104;-1.680;2022-09-11T02:23:19;17.50;99.90
17703;DHT22;8970;48.104;-1.680;2022-09-11T02:23:56;17.50;99.90
17703;DHT22;8970;48.104;-1.680;2022-09-11T02:24:34;17.50;99.90
17703;DHT22;8970;48.104;-1.680;2022-09-11T02:25:11;17.50;99.90
17703;DHT22;8970;48.104;-1.680;2022-09-11T02:26:32;17.50;99.90
17703;DHT22;8970;48.104;-1.680;2022-09-11T02:27:11;17.50;99.90
17703;DHT22;8970;48.104;-1.680;2022-09-11T02:28:32;17.60;99.90
17703;DHT22;8970;48.104;-1.680;2022-09-11T02:29:09;17.60;99.90
17703;DHT22;8970;48.104;-1.680;2022-09-11T02:29:45;17.60;99.90
17703;DHT22;8970;48.104;-1.680;2022-09-11T02:30:22;17.60;99.90
17703;DHT22;8970;48.104;-1.680;2022-09-11T02:30:58;17.60;99.90
17703;DHT22;8970;48.104;-1.680;2022-09-11T02:31:37;17.50;99.90
17703;DHT22;8970;48.104;-1.680;2022-09-11T02:32:14;17.50;99.90
17703;DHT22;8970;48.104;-1.680;2022-09-11T02:32:53;17.50;99.90
17703;DHT22;8970;48.104;-1.680;2022-09-11T02:33:32;17.60;99.90
17703;DHT22;8970;48.104;-1.680;2022-09-11T02:34:11;17.60;99.90
17703;DHT22;8970;48.104;-1.680;2022-09-11T02:34:49;17.60;99.90
17703;DHT22;8970;48.104;-1.680;2022-09-11T02:36:37;17.60;99.90
17703;DHT22;8970;48.104;-1.680;2022-09-11T02:37:27;17.50;99.90
17703;DHT22;8970;48.104;-1.680;2022-09-11T02:38:08;17.50;99.90
17703;DHT22;8970;48.104;-1.680;2022-09-11T02:38:49;17.40;99.90
17703;DHT22;8970;48.104;-1.680;2022-09-11T02:40:34;17.40;99.90
17703;DHT22;8970;48.104;-1.680;2022-09-11T02:42:05;17.30;99.90
17703;DHT22;8970;48.104;-1.680;2022-09-11T02:42:51;17.30;99.90
17703;DHT22;8970;48.104;-1.680;2022-09-11T02:44:23;17.30;99.90
17703;DHT22;8970;48.104;-1.680;2022-09-11T02:45:04;17.30;99.90
17703;DHT22;8970;48.104;-1.680;2022-09-11T02:45:47;17.30;99.90
17703;DHT22;8970;48.104;-1.680;2022-09-11T02:47:23;17.30;99.90
17703;DHT22;8970;48.104;-1.680;2022-09-11T02:48:05;17.30;99.90
17703;DHT22;8970;48.104;-1.680;2022-09-11T02:48:47;17.30;99.90
17703;DHT22;8970;48.104;-1.680;2022-09-11T02:49:29;17.30;99.90
17703;DHT22;8970;48.104;-1.680;2022-09-11T02:50:08;17.30;99.90
17703;DHT22;8970;48.104;-1.680;2022-09-11T02:50:49;17.20;99.90
17703;DHT22;8970;48.104;-1.680;2022-09-11T02:51:30;17.20;99.90
17703;DHT22;8970;48.104;-1.680;2022-09-11T02:52:10;17.20;99.90
17703;DHT22;8970;48.104;-1.680;2022-09-11T02:52:52;17.20;99.90
17703;DHT22;8970;48.104;-1.680;2022-09-11T02:53:32;17.20;99.90
17703;DHT22;8970;48.104;-1.680;2022-09-11T02:54:12;17.20;99.90
17703;DHT22;8970;48.104;-1.680;2022-09-11T02:55:44;17.20;99.90
17703;DHT22;8970;48.104;-1.680;2022-09-11T02:56:25;17.20;99.90
17703;DHT22;8970;48.104;-1.680;2022-09-11T02:57:05;17.20;99.90
17703;DHT22;8970;48.104;-1.680;2022-09-11T02:57:45;17.20;99.90
17703;DHT22;8970;48.104;-1.680;2022-09-11T02:59:09;17.20;99.90
17703;DHT22;8970;48.104;-1.680;2022-09-11T02:59:50;17.20;99.90
17703;DHT22;8970;48.104;-1.680;2022-09-11T03:00:28;17.20;99.90
17703;DHT22;8970;48.104;-1.680;2022-09-11T03:01:53;17.20;99.90
17703;DHT22;8970;48.104;-1.680;2022-09-11T03:02:34;17.20;99.90
17703;DHT22;8970;48.104;-1.680;2022-09-11T03:03:11;17.20;99.90
17703;DHT22;8970;48.104;-1.680;2022-09-11T03:03:48;17.20;99.90
17703;DHT22;8970;48.104;-1.680;2022-09-11T03:04:25;17.20;99.90
17703;DHT22;8970;48.104;-1.680;2022-09-11T03:05:01;17.20;99.90
17703;DHT22;8970;48.104;-1.680;2022-09-11T03:05:38;17.20;99.90
17703;DHT22;8970;48.104;-1.680;2022-09-11T03:06:17;17.20;99.90
17703;DHT22;8970;48.104;-1.680;2022-09-11T03:06:55;17.20;99.90
17703;DHT22;8970;48.104;-1.680;2022-09-11T03:07:33;17.20;99.90
17703;DHT22;8970;48.104;-1.680;2022-09-11T03:08:11;17.20;99.90
17703;DHT22;8970;48.104;-1.680;2022-09-11T03:09:32;17.20;99.90
17703;DHT22;8970;48.104;-1.680;2022-09-11T03:10:10;17.20;99.90
17703;DHT22;8970;48.104;-1.680;2022-09-11T03:10:47;17.20;99.90
17703;DHT22;8970;48.104;-1.680;2022-09-11T03:11:24;17.20;99.90
17703;DHT22;8970;48.104;-1.680;2022-09-11T03:12:01;17.20;99.90
17703;DHT22;8970;48.104;-1.680;2022-09-11T03:12:38;17.20;99.90
17703;DHT22;8970;48.104;-1.680;2022-09-11T03:13:15;17.20;99.90
17703;DHT22;8970;48.104;-1.680;2022-09-11T03:14:35;17.20;99.90
17703;DHT22;8970;48.104;-1.680;2022-09-11T03:15:12;17.20;99.90
17703;DHT22;8970;48.104;-1.680;2022-09-11T03:15:50;17.20;99.90
17703;DHT22;8970;48.104;-1.680;2022-09-11T03:16:28;17.20;99.90
17703;DHT22;8970;48.104;-1.680;2022-09-11T03:17:05;17.20;99.90
17703;DHT22;8970;48.104;-1.680;2022-09-11T03:17:42;17.20;99.90
17703;DHT22;8970;48.104;-1.680;2022-09-11T03:18:18;17.20;99.90
17703;DHT22;8970;48.104;-1.680;2022-09-11T03:18:55;17.30;99.90
17703;DHT22;8970;48.104;-1.680;2022-09-11T03:19:32;17.30;99.90
17703;DHT22;8970;48.104;-1.680;2022-09-11T03:20:09;17.30;99.90
17703;DHT22;8970;48.104;-1.680;2022-09-11T03:21:29;17.30;99.90
17703;DHT22;8970;48.104;-1.680;2022-09-11T03:22:06;17.30;99.90
17703;DHT22;8970;48.104;-1.680;2022-09-11T03:23:25;17.30;99.90
17703;DHT22;8970;48.104;-1.680;2022-09-11T03:24:03;17.30;99.90
17703;DHT22;8970;48.104;-1.680;2022-09-11T03:24:40;17.30;99.90
17703;DHT22;8970;48.104;-1.680;2022-09-11T03:25:17;17.30;99.90
17703;DHT22;8970;48.104;-1.680;2022-09-11T03:25:53;17.30;99.90
17703;DHT22;8970;48.104;-1.680;2022-09-11T03:26:30;17.30;99.90
17703;DHT22;8970;48.104;-1.680;2022-09-11T03:27:08;17.30;99.90
17703;DHT22;8970;48.104;-1.680;2022-09-11T03:27:44;17.30;99.90
17703;DHT22;8970;48.104;-1.680;2022-09-11T03:28:22;17.30;99.90
17703;DHT22;8970;48.104;-1.680;2022-09-11T03:28:58;17.30;99.90
17703;DHT22;8970;48.104;-1.680;2022-09-11T03:29:36;17.30;99.90
17703;DHT22;8970;48.104;-1.680;2022-09-11T03:30:13;17.30;99.90
17703;DHT22;8970;48.104;-1.680;2022-09-11T03:30:50;17.30;99.90
17703;DHT22;8970;48.104;-1.680;2022-09-11T03:31:27;17.30;99.90
17703;DHT22;8970;48.104;-1.680;2022-09-11T03:32:04;17.30;99.90
17703;DHT22;8970;48.104;-1.680;2022-09-11T03:32:41;17.30;99.90
17703;DHT22;8970;48.104;-1.680;2022-09-11T03:33:17;17.20;99.90
17703;DHT22;8970;48.104;-1.680;2022-09-11T03:34:36;17.20;99.90
17703;DHT22;8970;48.104;-1.680;2022-09-11T03:35:13;17.20;99.90
17703;DHT22;8970;48.104;-1.680;2022-09-11T03:35:50;17.20;99.90
17703;DHT22;8970;48.104;-1.680;2022-09-11T03:36:27;17.20;99.90
17703;DHT22;8970;48.104;-1.680;2022-09-11T03:37:04;17.20;99.90
17703;DHT22;8970;48.104;-1.680;2022-09-11T03:38:21;17.20;99.90
17703;DHT22;8970;48.104;-1.680;2022-09-11T03:38:58;17.20;99.90
17703;DHT22;8970;48.104;-1.680;2022-09-11T03:39:35;17.10;99.90
17703;DHT22;8970;48.104;-1.680;2022-09-11T03:40:12;17.20;99.90
17703;DHT22;8970;48.104;-1.680;2022-09-11T03:40:49;17.20;99.90
17703;DHT22;8970;48.104;-1.680;2022-09-11T03:41:25;17.20;99.90
17703;DHT22;8970;48.104;-1.680;2022-09-11T03:42:02;17.20;99.90
17703;DHT22;8970;48.104;-1.680;2022-09-11T03:43:24;17.20;99.90
17703;DHT22;8970;48.104;-1.680;2022-09-11T03:44:01;17.10;99.90
17703;DHT22;8970;48.104;-1.680;2022-09-11T03:44:37;17.10;99.90
17703;DHT22;8970;48.104;-1.680;2022-09-11T03:45:15;17.10;99.90
17703;DHT22;8970;48.104;-1.680;2022-09-11T03:45:52;17.10;99.90
17703;DHT22;8970;48.104;-1.680;2022-09-11T03:47:12;17.10;99.90
17703;DHT22;8970;48.104;-1.680;2022-09-11T03:47:48;17.10;99.90
17703;DHT22;8970;48.104;-1.680;2022-09-11T03:48:25;17.10;99.90
17703;DHT22;8970;48.104;-1.680;2022-09-11T03:49:03;17.10;99.90
17703;DHT22;8970;48.104;-1.680;2022-09-11T03:49:40;17.10;99.90
17703;DHT22;8970;48.104;-1.680;2022-09-11T03:50:17;17.10;99.90
17703;DHT22;8970;48.104;-1.680;2022-09-11T03:50:53;17.10;99.90
17703;DHT22;8970;48.104;-1.680;2022-09-11T03:51:30;17.10;99.90
17703;DHT22;8970;48.104;-1.680;2022-09-11T03:52:07;17.10;99.90
17703;DHT22;8970;48.104;-1.680;2022-09-11T03:52:43;17.10;99.90
17703;DHT22;8970;48.104;-1.680;2022-09-11T03:53:20;17.10;99.90
17703;DHT22;8970;48.104;-1.680;2022-09-11T03:53:58;17.10;99.90
17703;DHT22;8970;48.104;-1.680;2022-09-11T03:54:35;17.10;99.90
17703;DHT22;8970;48.104;-1.680;2022-09-11T03:55:14;17.10;99.90
17703;DHT22;8970;48.104;-1.680;2022-09-11T03:55:51;17.10;99.90
17703;DHT22;8970;48.104;-1.680;2022-09-11T03:56:29;17.10;99.90
17703;DHT22;8970;48.104;-1.680;2022-09-11T03:57:06;17.10;99.90
17703;DHT22;8970;48.104;-1.680;2022-09-11T03:57:43;17.10;99.90
17703;DHT22;8970;48.104;-1.680;2022-09-11T03:58:20;17.10;99.90
17703;DHT22;8970;48.104;-1.680;2022-09-11T03:58:57;17.10;99.90
17703;DHT22;8970;48.104;-1.680;2022-09-11T03:59:35;17.10;99.90
17703;DHT22;8970;48.104;-1.680;2022-09-11T04:00:12;17.00;99.90
17703;DHT22;8970;48.104;-1.680;2022-09-11T04:00:49;17.00;99.90
17703;DHT22;8970;48.104;-1.680;2022-09-11T04:01:26;17.00;99.90
17703;DHT22;8970;48.104;-1.680;2022-09-11T04:02:03;17.00;99.90
17703;DHT22;8970;48.104;-1.680;2022-09-11T04:02:40;17.00;99.90
17703;DHT22;8970;48.104;-1.680;2022-09-11T04:03:17;17.00;99.90
17703;DHT22;8970;48.104;-1.680;2022-09-11T04:04:34;17.00;99.90
17703;DHT22;8970;48.104;-1.680;2022-09-11T04:05:11;17.00;99.90
17703;DHT22;8970;48.104;-1.680;2022-09-11T04:05:57;17.00;99.90
17703;DHT22;8970;48.104;-1.680;2022-09-11T04:06:34;17.00;99.90
17703;DHT22;8970;48.104;-1.680;2022-09-11T04:07:10;16.90;99.90
17703;DHT22;8970;48.104;-1.680;2022-09-11T04:07:47;16.90;99.90
17703;DHT22;8970;48.104;-1.680;2022-09-11T04:08:24;16.90;99.90
17703;DHT22;8970;48.104;-1.680;2022-09-11T04:09:01;16.90;99.90
17703;DHT22;8970;48.104;-1.680;2022-09-11T04:09:37;16.90;99.90
17703;DHT22;8970;48.104;-1.680;2022-09-11T04:10:14;16.90;99.90
17703;DHT22;8970;48.104;-1.680;2022-09-11T04:10:56;16.90;99.90
17703;DHT22;8970;48.104;-1.680;2022-09-11T04:12:15;16.80;99.90
17703;DHT22;8970;48.104;-1.680;2022-09-11T04:12:53;16.80;99.90
17703;DHT22;8970;48.104;-1.680;2022-09-11T04:13:31;16.80;99.90
17703;DHT22;8970;48.104;-1.680;2022-09-11T04:14:08;16.80;99.90
17703;DHT22;8970;48.104;-1.680;2022-09-11T04:14:46;16.80;99.90
17703;DHT22;8970;48.104;-1.680;2022-09-11T04:15:24;16.80;99.90
17703;DHT22;8970;48.104;-1.680;2022-09-11T04:16:44;16.80;99.90
17703;DHT22;8970;48.104;-1.680;2022-09-11T04:17:21;16.70;99.90
17703;DHT22;8970;48.104;-1.680;2022-09-11T04:18:44;16.70;99.90
17703;DHT22;8970;48.104;-1.680;2022-09-11T04:19:21;16.70;99.90
17703;DHT22;8970;48.104;-1.680;2022-09-11T04:19:58;16.70;99.90
17703;DHT22;8970;48.104;-1.680;2022-09-11T04:20:37;16.70;99.90
17703;DHT22;8970;48.104;-1.680;2022-09-11T04:21:16;16.70;99.90
17703;DHT22;8970;48.104;-1.680;2022-09-11T04:21:53;16.70;99.90
17703;DHT22;8970;48.104;-1.680;2022-09-11T04:22:29;16.70;99.90
17703;DHT22;8970;48.104;-1.680;2022-09-11T04:23:06;16.70;99.90
17703;DHT22;8970;48.104;-1.680;2022-09-11T04:23:44;16.70;99.90
17703;DHT22;8970;48.104;-1.680;2022-09-11T04:24:20;16.70;99.90
17703;DHT22;8970;48.104;-1.680;2022-09-11T04:24:57;16.70;99.90
17703;DHT22;8970;48.104;-1.680;2022-09-11T04:25:34;16.70;99.90
17703;DHT22;8970;48.104;-1.680;2022-09-11T04:26:15;16.70;99.90
17703;DHT22;8970;48.104;-1.680;2022-09-11T04:26:55;16.70;99.90
17703;DHT22;8970;48.104;-1.680;2022-09-11T04:27:33;16.70;99.90
17703;DHT22;8970;48.104;-1.680;2022-09-11T04:28:10;16.70;99.90
17703;DHT22;8970;48.104;-1.680;2022-09-11T04:29:42;16.70;99.90
17703;DHT22;8970;48.104;-1.680;2022-09-11T04:30:20;16.70;99.90
17703;DHT22;8970;48.104;-1.680;2022-09-11T04:31:01;16.70;99.90
17703;DHT22;8970;48.104;-1.680;2022-09-11T04:31:38;16.70;99.90
17703;DHT22;8970;48.104;-1.680;2022-09-11T04:32:15;16.70;99.90
17703;DHT22;8970;48.104;-1.680;2022-09-11T04:32:52;16.70;99.90
17703;DHT22;8970;48.104;-1.680;2022-09-11T04:33:29;16.70;99.90
17703;DHT22;8970;48.104;-1.680;2022-09-11T04:34:47;16.70;99.90
17703;DHT22;8970;48.104;-1.680;2022-09-11T04:35:25;16.70;99.90
17703;DHT22;8970;48.104;-1.680;2022-09-11T04:36:05;16.70;99.90
17703;DHT22;8970;48.104;-1.680;2022-09-11T04:37:26;16.70;99.90
17703;DHT22;8970;48.104;-1.680;2022-09-11T04:38:02;16.60;99.90
17703;DHT22;8970;48.104;-1.680;2022-09-11T04:38:39;16.60;99.90
17703;DHT22;8970;48.104;-1.680;2022-09-11T04:39:16;16.60;99.90
17703;DHT22;8970;48.104;-1.680;2022-09-11T04:39:53;16.60;99.90
17703;DHT22;8970;48.104;-1.680;2022-09-11T04:40:29;16.60;99.90
17703;DHT22;8970;48.104;-1.680;2022-09-11T04:41:07;16.60;99.90
17703;DHT22;8970;48.104;-1.680;2022-09-11T04:41:45;16.60;99.90
17703;DHT22;8970;48.104;-1.680;2022-09-11T04:43:06;16.60;99.90
17703;DHT22;8970;48.104;-1.680;2022-09-11T04:43:43;16.50;99.90
17703;DHT22;8970;48.104;-1.680;2022-09-11T04:44:20;16.50;99.90
17703;DHT22;8970;48.104;-1.680;2022-09-11T04:44:57;16.50;99.90
17703;DHT22;8970;48.104;-1.680;2022-09-11T04:45:33;16.50;99.90
17703;DHT22;8970;48.104;-1.680;2022-09-11T04:46:12;16.50;99.90
17703;DHT22;8970;48.104;-1.680;2022-09-11T04:47:33;16.50;99.90
17703;DHT22;8970;48.104;-1.680;2022-09-11T04:48:09;16.50;99.90
17703;DHT22;8970;48.104;-1.680;2022-09-11T04:48:47;16.50;99.90
17703;DHT22;8970;48.104;-1.680;2022-09-11T04:49:23;16.50;99.90
17703;DHT22;8970;48.104;-1.680;2022-09-11T04:50:01;16.50;99.90
17703;DHT22;8970;48.104;-1.680;2022-09-11T04:50:38;16.50;99.90
17703;DHT22;8970;48.104;-1.680;2022-09-11T04:52:00;16.50;99.90
17703;DHT22;8970;48.104;-1.680;2022-09-11T04:52:38;16.50;99.90
17703;DHT22;8970;48.104;-1.680;2022-09-11T04:53:15;16.50;99.90